createdAt,value
2022-11-07T00:01:18.035Z,25.85
2022-11-07T00:03:45.442Z,31.88
2022-11-07T00:06:12.452Z,36.85
2022-11-07T00:08:39.316Z,36.03
2022-11-07T00:11:06.682Z,28.10
2022-11-07T00:13:34.303Z,36.17
2022-11-07T00:16:04.403Z,35.28
2022-11-07T00:18:31.269Z,36.70
2022-11-07T00:21:05.964Z,35.80
2022-11-07T00:23:33.076Z,35.90
2022-11-07T00:26:08.079Z,31.88
2022-11-07T00:28:36.716Z,24.52
2022-11-07T00:31:04.560Z,35.28
2022-11-07T00:33:32.126Z,35.83
2022-11-07T00:35:59.008Z,41.45
2022-11-07T00:38:26.467Z,38.25
2022-11-07T00:41:00.282Z,38.17
2022-11-07T00:43:27.812Z,32.58
2022-11-07T00:45:54.854Z,36.03
2022-11-07T00:48:22.131Z,32.85
2022-11-07T00:50:50.034Z,33.78
2022-11-07T00:53:17.467Z,24.33
2022-11-07T00:55:44.800Z,27.33
2022-11-07T00:58:14.119Z,24.95
2022-11-07T01:00:41.920Z,27.30
2022-11-07T01:03:27.625Z,24.07
2022-11-07T01:06:03.183Z,27.27
2022-11-07T01:08:31.198Z,30.17
2022-11-07T01:10:59.650Z,27.88
2022-11-07T01:13:26.930Z,30.30
2022-11-07T01:15:54.385Z,29.93
2022-11-07T01:18:21.963Z,36.70
2022-11-07T01:20:52.965Z,33.08
2022-11-07T01:23:19.936Z,38.97
2022-11-07T01:25:46.769Z,37.20
2022-11-07T01:28:13.599Z,38.92
2022-11-07T01:30:45.717Z,33.78
2022-11-07T01:33:13.371Z,37.92
2022-11-07T01:35:40.746Z,37.70
2022-11-07T01:38:07.768Z,36.25
2022-11-07T01:40:59.963Z,39.67
2022-11-07T01:44:07.320Z,39.38
2022-11-07T01:46:35.558Z,40.47
2022-11-07T01:49:23.540Z,30.67
2022-11-07T01:52:04.458Z,32.15
2022-11-07T01:54:35.989Z,28.20
2022-11-07T01:57:19.423Z,35.45
2022-11-07T01:59:47.150Z,26.65
2022-11-07T02:02:14.887Z,38.55
2022-11-07T02:04:42.081Z,38.85
2022-11-07T02:07:14.682Z,36.58
2022-11-07T02:09:42.311Z,40.30
2022-11-07T02:12:09.216Z,39.28
2022-11-07T02:14:36.131Z,49.97
2022-11-07T02:17:03.064Z,42.25
2022-11-07T02:19:56.839Z,48.22
2022-11-07T02:22:58.333Z,36.95
2022-11-07T02:25:26.070Z,40.75
2022-11-07T02:27:57.633Z,38.00
2022-11-07T02:30:27.746Z,36.78
2022-11-07T02:32:54.886Z,37.72
2022-11-07T02:35:44.452Z,33.17
2022-11-07T02:38:17.479Z,35.17
2022-11-07T02:40:47.884Z,29.92
2022-11-07T02:43:18.629Z,29.73
2022-11-07T02:45:48.449Z,32.15
2022-11-07T02:48:15.350Z,29.65
2022-11-07T02:50:43.200Z,35.33
2022-11-07T02:53:10.293Z,30.58
2022-11-07T02:55:37.229Z,31.45
2022-11-07T02:58:04.270Z,28.88
2022-11-07T03:00:31.205Z,23.75
2022-11-07T03:02:58.323Z,22.67
2022-11-07T03:05:25.261Z,22.15
2022-11-07T03:07:52.671Z,24.63
2022-11-07T03:10:19.547Z,22.23
2022-11-07T03:12:46.717Z,20.88
2022-11-07T03:15:14.088Z,21.27
2022-11-07T03:17:42.044Z,22.75
2022-11-07T03:20:09.947Z,19.20
2022-11-07T03:22:37.280Z,23.38
2022-11-07T03:25:23.656Z,23.20
2022-11-07T03:27:51.497Z,20.42
2022-11-07T03:30:18.611Z,23.10
2022-11-07T03:32:46.191Z,20.45
2022-11-07T03:35:13.446Z,17.67
2022-11-07T03:37:40.314Z,19.33
2022-11-07T03:40:07.816Z,17.58
2022-11-07T03:42:39.540Z,19.45
2022-11-07T03:45:08.150Z,22.80
2022-11-07T03:47:39.396Z,28.67
2022-11-07T03:50:09.000Z,16.52
2022-11-07T03:52:35.889Z,17.95
2022-11-07T03:55:03.523Z,15.85
2022-11-07T03:57:30.418Z,18.08
2022-11-07T03:59:57.416Z,22.98
2022-11-07T04:02:24.577Z,25.30
2022-11-07T04:04:51.496Z,16.45
2022-11-07T04:07:18.428Z,18.50
2022-11-07T04:09:45.339Z,18.90
2022-11-07T04:12:30.636Z,20.35
2022-11-07T04:15:16.166Z,18.42
2022-11-07T04:17:43.063Z,15.65
2022-11-07T04:20:10.343Z,16.33
2022-11-07T04:22:37.305Z,17.52
2022-11-07T04:25:04.707Z,16.63
2022-11-07T04:27:43.879Z,17.35
2022-11-07T04:30:19.981Z,18.52
2022-11-07T04:32:51.798Z,18.58
2022-11-07T04:35:20.473Z,17.00
2022-11-07T04:37:48.231Z,19.95
2022-11-07T04:40:16.887Z,18.65
2022-11-07T04:42:44.787Z,18.10
2022-11-07T04:45:12.827Z,23.73
2022-11-07T04:47:40.998Z,17.08
2022-11-07T04:50:10.859Z,18.30
2022-11-07T04:52:38.078Z,19.00
2022-11-07T04:55:07.294Z,22.35
2022-11-07T04:57:34.159Z,21.30
2022-11-07T05:00:01.187Z,16.30
2022-11-07T05:02:30.707Z,14.55
2022-11-07T05:04:57.816Z,14.13
2022-11-07T05:07:24.695Z,20.35
2022-11-07T05:09:51.713Z,21.08
2022-11-07T05:12:18.684Z,17.17
2022-11-07T05:14:45.643Z,21.05
2022-11-07T05:17:15.487Z,20.10
2022-11-07T05:19:43.425Z,19.55
2022-11-07T05:22:29.223Z,19.35
2022-11-07T05:24:56.347Z,17.23
2022-11-07T05:27:23.801Z,18.77
2022-11-07T05:29:51.187Z,17.33
2022-11-07T05:32:18.226Z,13.75
2022-11-07T05:34:45.146Z,20.38
2022-11-07T05:37:13.419Z,16.65
2022-11-07T05:39:40.278Z,14.07
2022-11-07T05:42:07.308Z,19.45
2022-11-07T05:44:34.392Z,14.93
2022-11-07T05:47:01.568Z,22.95
2022-11-07T05:49:28.510Z,19.83
2022-11-07T05:51:55.615Z,16.60
2022-11-07T05:54:23.564Z,16.23
2022-11-07T05:56:50.535Z,19.50
2022-11-07T05:59:17.582Z,16.48
2022-11-07T06:01:47.669Z,12.75
2022-11-07T06:04:16.999Z,16.13
2022-11-07T06:06:43.877Z,15.20
2022-11-07T06:09:10.762Z,16.17
2022-11-07T06:11:37.601Z,16.60
2022-11-07T06:14:04.535Z,14.40
2022-11-07T06:16:31.420Z,14.70
2022-11-07T06:18:58.332Z,22.33
2022-11-07T06:21:25.676Z,16.90
2022-11-07T06:23:52.871Z,16.42
2022-11-07T06:26:19.741Z,22.55
2022-11-07T06:28:46.605Z,18.08
2022-11-07T06:31:13.661Z,20.35
2022-11-07T06:33:40.567Z,21.80
2022-11-07T06:36:12.375Z,16.05
2022-11-07T06:38:40.277Z,15.13
2022-11-07T06:41:12.595Z,18.00
2022-11-07T06:43:39.938Z,13.63
2022-11-07T06:46:10.494Z,15.43
2022-11-07T06:48:37.381Z,15.48
2022-11-07T06:51:05.805Z,14.55
2022-11-07T06:53:33.149Z,13.20
2022-11-07T06:56:01.593Z,12.45
2022-11-07T06:58:28.552Z,12.15
2022-11-07T07:01:00.093Z,11.75
2022-11-07T07:03:27.131Z,15.35
2022-11-07T07:05:54.054Z,14.70
2022-11-07T07:08:20.894Z,14.00
2022-11-07T07:10:47.869Z,13.35
2022-11-07T07:13:15.106Z,10.63
2022-11-07T07:15:51.005Z,15.75
2022-11-07T07:18:19.615Z,10.18
2022-11-07T07:20:50.493Z,12.27
2022-11-07T07:23:18.924Z,11.95
2022-11-07T07:25:47.075Z,13.73
2022-11-07T07:28:14.102Z,14.25
2022-11-07T07:30:41.042Z,17.63
2022-11-07T07:33:07.912Z,12.98
2022-11-07T07:35:34.738Z,12.27
2022-11-07T07:38:01.715Z,12.57
2022-11-07T07:40:28.687Z,13.25
2022-11-07T07:42:55.601Z,15.55
2022-11-07T07:45:22.520Z,14.43
2022-11-07T07:47:49.447Z,12.93
2022-11-07T07:50:16.525Z,17.70
2022-11-07T07:52:43.937Z,17.70
2022-11-07T07:55:11.696Z,12.50
2022-11-07T07:57:40.878Z,11.23
2022-11-07T08:00:08.714Z,15.15
2022-11-07T08:02:39.875Z,15.32
2022-11-07T08:05:07.245Z,15.38
2022-11-07T08:07:34.165Z,15.38
2022-11-07T08:10:34.935Z,14.77
2022-11-07T08:12:49.747Z,11.93
2022-11-07T08:15:18.007Z,13.10
2022-11-07T08:17:45.991Z,13.73
2022-11-07T08:20:15.754Z,14.18
2022-11-07T08:22:43.678Z,15.77
2022-11-07T08:25:11.432Z,14.32
2022-11-07T08:27:40.429Z,13.20
2022-11-07T08:30:11.580Z,13.30
2022-11-07T08:32:42.267Z,11.65
2022-11-07T08:35:09.563Z,12.25
2022-11-07T08:37:36.574Z,13.40
2022-11-07T08:40:04.019Z,16.80
2022-11-07T08:42:31.031Z,14.75
2022-11-07T08:44:57.930Z,15.15
2022-11-07T08:47:25.022Z,11.63
2022-11-07T08:49:51.948Z,15.27
2022-11-07T08:52:18.826Z,12.73
2022-11-07T08:54:45.756Z,14.63
2022-11-07T08:57:12.652Z,19.70
2022-11-07T08:59:39.543Z,14.45
2022-11-07T09:04:53.627Z,16.90
2022-11-07T09:07:20.635Z,15.85
2022-11-07T09:09:47.592Z,11.90
2022-11-07T09:12:14.541Z,15.38
2022-11-07T09:14:41.396Z,15.65
2022-11-07T09:17:08.377Z,16.42
2022-11-07T09:19:35.321Z,13.95
2022-11-07T09:22:02.205Z,11.65
2022-11-07T09:24:29.074Z,15.93
2022-11-07T09:26:55.895Z,14.93
2022-11-07T09:29:22.930Z,17.25
2022-11-07T09:31:49.764Z,14.73
2022-11-07T09:34:16.724Z,15.40
2022-11-07T09:36:43.555Z,14.90
2022-11-07T09:39:10.408Z,13.82
2022-11-07T09:42:01.513Z,15.68
2022-11-07T09:44:44.509Z,16.90
2022-11-07T09:47:11.395Z,14.23
2022-11-07T09:49:46.315Z,15.75
2022-11-07T09:52:15.923Z,15.48
2022-11-07T09:54:51.929Z,15.48
2022-11-07T09:57:20.318Z,19.25
2022-11-07T09:59:56.349Z,19.15
2022-11-07T10:02:31.834Z,16.75
2022-11-07T10:05:01.350Z,18.08
2022-11-07T10:07:58.568Z,17.27
2022-11-07T10:10:46.897Z,14.80
2022-11-07T10:13:26.865Z,17.83
2022-11-07T10:16:21.941Z,17.48
2022-11-07T10:18:54.584Z,15.77
2022-11-07T10:21:38.774Z,18.30
2022-11-07T10:24:15.175Z,16.58
2022-11-07T10:26:45.051Z,21.08
2022-11-07T10:29:24.417Z,15.82
2022-11-07T10:32:09.284Z,21.05
2022-11-07T10:34:57.016Z,18.48
2022-11-07T10:37:24.569Z,18.80
2022-11-07T10:39:51.494Z,18.33
2022-11-07T10:42:27.337Z,24.10
2022-11-07T10:44:56.541Z,15.82
2022-11-07T10:47:25.551Z,17.60
2022-11-07T10:49:56.621Z,20.85
2022-11-07T10:52:24.707Z,18.67
2022-11-07T10:54:51.839Z,18.65
2022-11-07T10:57:21.165Z,21.92
2022-11-07T10:59:59.314Z,19.45
2022-11-07T11:02:27.553Z,16.90
2022-11-07T11:05:00.439Z,17.85
2022-11-07T11:07:35.848Z,17.45
2022-11-07T11:10:04.280Z,18.90
2022-11-07T11:12:34.822Z,21.48
2022-11-07T11:15:12.837Z,16.52
2022-11-07T11:17:40.711Z,18.98
2022-11-07T11:20:28.756Z,22.27
2022-11-07T11:22:55.872Z,22.17
2022-11-07T11:25:23.968Z,24.77
2022-11-07T11:28:05.417Z,26.17
2022-11-07T11:30:36.275Z,22.70
2022-11-07T11:33:20.748Z,24.75
2022-11-07T11:35:53.471Z,25.92
2022-11-07T11:38:24.827Z,21.08
2022-11-07T11:41:04.707Z,24.85
2022-11-07T11:43:59.021Z,22.30
2022-11-07T11:47:01.488Z,25.55
2022-11-07T11:49:35.396Z,24.25
2022-11-07T11:52:17.026Z,21.98
2022-11-07T11:54:45.357Z,28.80
2022-11-07T11:57:18.960Z,22.58
2022-11-07T12:00:14.555Z,31.88
2022-11-07T12:03:18.042Z,33.08
2022-11-07T12:06:03.558Z,38.30
2022-11-07T12:08:39.776Z,40.03
2022-11-07T12:11:21.616Z,37.70
2022-11-07T12:14:30.101Z,28.90
2022-11-07T12:17:14.923Z,33.42
2022-11-07T12:19:55.698Z,37.60
2022-11-07T12:22:46.883Z,35.00
2022-11-07T12:25:52.079Z,37.42
2022-11-07T12:28:30.946Z,34.55
2022-11-07T12:31:27.138Z,28.00
2022-11-07T12:34:06.494Z,33.53
2022-11-07T12:37:08.763Z,34.30
2022-11-07T12:40:01.110Z,32.38
2022-11-07T12:43:05.294Z,32.97
2022-11-07T12:46:22.721Z,32.47
2022-11-07T12:49:22.934Z,29.58
2022-11-07T12:52:09.543Z,29.05
2022-11-07T12:54:39.262Z,29.90
2022-11-07T12:57:15.242Z,27.02
2022-11-07T12:59:47.336Z,26.60
2022-11-07T13:02:29.758Z,27.73
2022-11-07T13:05:31.599Z,26.58
2022-11-07T13:08:04.629Z,24.52
2022-11-07T13:10:53.517Z,29.75
2022-11-07T13:13:31.111Z,24.17
2022-11-07T13:16:21.192Z,23.48
2022-11-07T13:18:48.238Z,32.50
2022-11-07T13:21:15.096Z,28.63
2022-11-07T13:23:42.063Z,24.63
2022-11-07T13:26:32.531Z,25.27
2022-11-07T13:29:01.318Z,30.20
2022-11-07T13:31:39.856Z,33.38
2022-11-07T13:34:19.855Z,33.78
2022-11-07T13:36:49.827Z,29.05
2022-11-07T13:39:18.859Z,29.15
2022-11-07T13:41:48.163Z,39.83
2022-11-07T13:44:29.173Z,30.33
2022-11-07T13:46:59.602Z,27.70
2022-11-07T13:49:44.223Z,28.02
2022-11-07T13:52:24.306Z,29.25
2022-11-07T13:55:01.087Z,26.67
2022-11-07T14:00:16.145Z,30.27
2022-11-07T14:02:57.837Z,28.58
2022-11-07T14:05:33.203Z,30.05
2022-11-07T14:08:01.481Z,37.92
2022-11-07T14:10:39.024Z,41.08
2022-11-07T14:13:12.285Z,35.83
2022-11-07T14:15:55.059Z,46.92
2022-11-07T14:18:25.600Z,41.10
2022-11-07T14:20:58.201Z,44.28
2022-11-07T14:23:28.512Z,42.35
2022-11-07T14:26:15.529Z,48.13
2022-11-07T14:28:42.667Z,42.13
2022-11-07T14:31:37.167Z,37.05
2022-11-07T14:34:24.627Z,37.42
2022-11-07T14:36:55.409Z,44.35
2022-11-07T14:39:24.048Z,43.13
2022-11-07T14:41:52.053Z,45.53
2022-11-07T14:44:36.407Z,53.08
2022-11-07T14:47:21.153Z,48.08
2022-11-07T14:49:50.384Z,41.67
2022-11-07T14:52:27.065Z,42.40
2022-11-07T14:55:08.514Z,39.70
2022-11-07T14:57:38.442Z,45.55
2022-11-07T15:00:08.433Z,45.97
2022-11-07T15:02:36.137Z,47.97
2022-11-07T15:05:10.690Z,47.90
2022-11-07T15:07:47.543Z,44.50
2022-11-07T15:10:24.748Z,50.72
2022-11-07T15:12:54.291Z,52.88
2022-11-07T15:15:24.753Z,40.78
2022-11-07T15:17:55.139Z,48.08
2022-11-07T15:20:32.757Z,49.80
2022-11-07T15:23:12.025Z,42.38
2022-11-07T15:25:42.949Z,45.97
2022-11-07T15:28:19.828Z,43.80
2022-11-07T15:30:48.590Z,44.80
2022-11-07T15:33:19.764Z,45.40
2022-11-07T15:35:48.812Z,39.55
2022-11-07T15:38:22.146Z,42.65
2022-11-07T15:40:49.596Z,43.00
2022-11-07T15:43:16.504Z,40.78
2022-11-07T15:45:44.181Z,44.88
2022-11-07T15:48:18.562Z,40.33
2022-11-07T15:50:47.312Z,41.80
2022-11-07T15:53:23.851Z,46.63
2022-11-07T15:55:59.635Z,40.42
2022-11-07T15:58:29.247Z,44.13
2022-11-07T16:00:57.832Z,45.58
2022-11-07T16:03:26.175Z,49.03
2022-11-07T16:05:55.442Z,42.95
2022-11-07T16:08:24.553Z,44.00
2022-11-07T16:10:55.067Z,43.22
2022-11-07T16:13:22.280Z,44.38
2022-11-07T16:15:54.534Z,45.15
2022-11-07T16:18:22.733Z,42.85
2022-11-07T16:20:50.363Z,43.53
2022-11-07T16:23:18.389Z,44.35
2022-11-07T16:25:48.410Z,47.28
2022-11-07T16:28:25.801Z,46.45
2022-11-07T16:30:53.066Z,40.63
2022-11-07T16:33:20.168Z,39.65
2022-11-07T16:35:53.135Z,29.85
2022-11-07T16:38:22.791Z,32.63
2022-11-07T16:40:50.188Z,30.23
2022-11-07T16:43:17.699Z,34.03
2022-11-07T16:45:53.536Z,27.10
2022-11-07T16:48:28.350Z,31.30
2022-11-07T16:50:56.538Z,26.98
2022-11-07T16:53:25.997Z,31.88
2022-11-07T16:56:01.060Z,30.02
2022-11-07T16:58:33.664Z,29.13
2022-11-07T17:01:05.409Z,30.40
2022-11-07T17:03:33.183Z,32.30
2022-11-07T17:06:02.472Z,30.48
2022-11-07T17:08:39.670Z,36.85
2022-11-07T17:11:07.288Z,36.90
2022-11-07T17:13:34.748Z,36.33
2022-11-07T17:16:01.831Z,34.72
2022-11-07T17:18:28.807Z,30.33
2022-11-07T17:20:56.261Z,29.52
2022-11-07T17:23:29.840Z,26.50
2022-11-07T17:26:00.344Z,33.03
2022-11-07T17:28:27.489Z,32.15
2022-11-07T17:30:54.369Z,30.05
2022-11-07T17:33:21.265Z,33.67
2022-11-07T17:35:50.582Z,30.52
2022-11-07T17:38:17.988Z,32.63
2022-11-07T17:40:45.128Z,29.23
2022-11-07T17:43:12.149Z,30.70
2022-11-07T17:45:40.414Z,30.50
2022-11-07T17:48:08.968Z,34.47
2022-11-07T17:50:36.241Z,28.10
2022-11-07T17:53:03.291Z,33.78
2022-11-07T17:55:30.287Z,29.45
2022-11-07T17:57:57.211Z,33.25
2022-11-07T18:00:25.564Z,31.75
2022-11-07T18:02:53.021Z,32.60
2022-11-07T18:05:22.576Z,32.92
2022-11-07T18:07:49.531Z,33.42
2022-11-07T18:10:17.031Z,31.13
2022-11-07T18:12:44.403Z,31.45
2022-11-07T18:15:14.435Z,32.03
2022-11-07T18:17:41.948Z,33.03
2022-11-07T18:20:09.993Z,30.23
2022-11-07T18:22:37.441Z,33.40
2022-11-07T18:25:08.751Z,32.47
2022-11-07T18:27:36.017Z,32.50
2022-11-07T18:30:05.506Z,33.58
2022-11-07T18:32:36.231Z,32.33
2022-11-07T18:35:06.280Z,37.25
2022-11-07T18:37:33.988Z,35.50
2022-11-07T18:40:01.008Z,35.17
2022-11-07T18:42:29.233Z,36.88
2022-11-07T18:44:59.155Z,44.15
2022-11-07T18:47:26.062Z,34.80
2022-11-07T18:49:57.180Z,30.13
2022-11-07T18:52:24.642Z,30.67
2022-11-07T18:54:51.880Z,30.67
2022-11-07T18:57:18.745Z,32.17
2022-11-07T18:59:46.256Z,33.42
2022-11-07T19:02:13.969Z,32.45
2022-11-07T19:04:41.340Z,30.02
2022-11-07T19:07:08.289Z,36.15
2022-11-07T19:09:35.955Z,32.65
2022-11-07T19:12:03.686Z,35.90
2022-11-07T19:14:30.951Z,39.63
2022-11-07T19:16:58.508Z,37.50
2022-11-07T19:19:25.763Z,34.78
2022-11-07T19:21:52.685Z,35.42
2022-11-07T19:24:19.741Z,33.95
2022-11-07T19:26:46.740Z,30.95
2022-11-07T19:29:13.650Z,36.35
2022-11-07T19:31:40.581Z,34.47
2022-11-07T19:34:07.614Z,35.75
2022-11-07T19:36:35.414Z,36.17
2022-11-07T19:39:03.149Z,36.47
2022-11-07T19:41:30.121Z,36.55
2022-11-07T19:43:59.270Z,33.75
2022-11-07T19:46:26.192Z,40.55
2022-11-07T19:48:56.027Z,37.15
2022-11-07T19:51:23.408Z,35.85
2022-11-07T19:53:58.848Z,35.92
2022-11-07T19:56:28.678Z,34.70
2022-11-07T19:58:55.947Z,33.47
2022-11-07T20:01:26.565Z,34.92
2022-11-07T20:03:54.730Z,33.78
2022-11-07T20:06:27.798Z,34.83
2022-11-07T20:08:54.769Z,36.03
2022-11-07T20:11:24.352Z,33.20
2022-11-07T20:13:54.734Z,37.85
2022-11-07T20:16:23.757Z,37.80
2022-11-07T20:18:50.966Z,32.45
2022-11-07T20:21:23.006Z,29.95
2022-11-07T20:23:53.778Z,35.70
2022-11-07T20:26:24.605Z,35.03
2022-11-07T20:28:52.787Z,35.95
2022-11-07T20:31:23.643Z,31.20
2022-11-07T20:33:50.823Z,31.92
2022-11-07T20:36:19.360Z,33.55
2022-11-07T20:38:46.337Z,37.42
2022-11-07T20:41:14.054Z,32.70
2022-11-07T20:43:41.638Z,35.80
2022-11-07T20:46:14.822Z,35.15
2022-11-07T20:48:42.494Z,33.38
2022-11-07T20:51:11.910Z,32.92
2022-11-07T20:53:39.706Z,36.95
2022-11-07T20:56:07.489Z,40.42
2022-11-07T20:58:37.498Z,33.67
2022-11-07T21:01:05.909Z,34.72
2022-11-07T21:03:34.540Z,31.50
2022-11-07T21:06:01.725Z,35.25
2022-11-07T21:08:31.864Z,35.47
2022-11-07T21:11:01.458Z,39.45
2022-11-07T21:13:28.306Z,32.70
2022-11-07T21:15:55.320Z,32.40
2022-11-07T21:18:22.171Z,35.72
2022-11-07T21:20:49.064Z,31.85
2022-11-07T21:23:16.803Z,31.35
2022-11-07T21:25:45.898Z,32.83
2022-11-07T21:28:17.277Z,38.50
2022-11-07T21:31:04.783Z,28.02
2022-11-07T21:33:31.865Z,32.47
2022-11-07T21:35:58.815Z,34.08
2022-11-07T21:38:26.150Z,32.05
2022-11-07T21:40:53.564Z,29.42
2022-11-07T21:43:20.601Z,31.90
2022-11-07T21:45:47.499Z,31.75
2022-11-07T21:48:16.743Z,33.00
2022-11-07T21:50:45.284Z,38.45
2022-11-07T21:53:12.925Z,34.97
2022-11-07T21:55:39.839Z,34.35
2022-11-07T21:58:06.676Z,32.42
2022-11-07T22:00:36.545Z,29.85
2022-11-07T22:03:04.728Z,34.45
2022-11-07T22:05:31.686Z,32.35
2022-11-07T22:07:58.684Z,35.33
2022-11-07T22:10:25.893Z,31.02
2022-11-07T22:12:52.972Z,34.05
2022-11-07T22:15:20.178Z,33.47
2022-11-07T22:17:47.113Z,37.45
2022-11-07T22:20:14.026Z,41.03
2022-11-07T22:22:41.088Z,32.45
2022-11-07T22:25:08.476Z,37.08
2022-11-07T22:27:37.371Z,34.63
2022-11-07T22:30:05.062Z,35.28
2022-11-07T22:32:31.927Z,32.53
2022-11-07T22:34:58.864Z,33.20
2022-11-07T22:37:25.770Z,35.50
2022-11-07T22:39:52.733Z,33.17
2022-11-07T22:42:23.596Z,33.13
2022-11-07T22:44:51.711Z,35.60
2022-11-07T22:47:18.630Z,34.70
2022-11-07T22:49:45.611Z,35.88
2022-11-07T22:52:12.660Z,32.28
2022-11-07T22:54:39.621Z,31.63
2022-11-07T22:57:06.822Z,30.60
2022-11-07T22:59:35.730Z,32.50
2022-11-07T23:02:02.774Z,33.70
2022-11-07T23:04:32.822Z,30.52
2022-11-07T23:07:00.024Z,35.70
2022-11-07T23:09:26.985Z,36.10
2022-11-07T23:11:53.926Z,33.83
2022-11-07T23:14:21.783Z,35.10
2022-11-07T23:16:51.536Z,32.97
2022-11-07T23:19:21.835Z,38.03
2022-11-07T23:21:50.958Z,34.53
2022-11-07T23:24:18.027Z,37.50
2022-11-07T23:26:45.075Z,36.30
2022-11-07T23:29:15.075Z,37.15
2022-11-07T23:31:44.556Z,36.38
2022-11-07T23:34:12.136Z,32.10
2022-11-07T23:36:44.081Z,32.42
2022-11-07T23:39:18.538Z,41.35
2022-11-07T23:41:45.965Z,32.58
2022-11-07T23:44:14.232Z,33.75
2022-11-07T23:47:00.378Z,40.67
2022-11-07T23:49:45.837Z,39.35
2022-11-07T23:52:13.051Z,34.63
2022-11-07T23:54:58.505Z,41.63
2022-11-07T23:57:25.460Z,39.03
